Portada
METAR-TAF:

METAR-TAF

Aeropuertos :

Lleida-Alguaire

Lérida, España

latitud: 41-43-40N, longitud: 000-32-09E, altitud: 350 m

Observación

El informe se hizo hace 4 horas y 3 minutos, a las 06:00 UTC
Viento 9 kt del este-noreste
Temperatura 10°C
Humedad 82%
Presión 1004 hPa
Visibilidad 10 km o más
sin nubes por debajo de 1500 m y sin presencia de cumulonimbus.

METAR: LEDA 190600Z AUTO 07009KT CAVOK 10/07 Q1004

Hora: 11:03 (10:03 UTC)


TAF: falta

Observaciones y pronósticos meteorológicos de más de 4000 aeropuertos (mensajes METAR y TAF).

Los puntos amarillos y rojos representan las estaciones disponibles.

Ponga el ratón en el punto deseado para ver el nombre de la estación.

Haga clic para ver las observaciones y los pronósticos meteorológicos.

Para cambiar el mapa : haga clic en los botones verdes con una cruz de color negro para hacer un zoom, en el botón verde con un guión para alejar o en las flechas verdes para mapas adyacentes.


METAR-TAF: